Old Crow Airport
CYOC : now visible

Airfield :











YOU CAN JOIN US ON...

 
LOGIN :

Register | Disclaimer

   EN    FR    IT 

 









Legend :    VFR   Marginal VFR   IFR   Intensive IFR   Very Intensive IFR
Visi :
Ceiling :
>= 8 km
>= 3000ft
5 to 8 km
1000 to 3000 ft
1500m to 5 km
500 to 1000 ft
800 to 1500m
200 to 500 ft
< 800m
< 200 ft
Symbols :   Thunderstorms  Fog  Heavy snow  Heavy precipitations  Wind > 20 kt






- Airport Elevation : 824 ft
- IATA code : YOC


CYOC - Old Crow

CURRENT METAR :
  • 260128Z 06010KT 6SM -SN SCT013 OVC040 M26/M31 A3010 RMK ST4SC4 SLP233

EXPIRED METARs :
  • 260100Z 06010KT 6SM VCSS SCT013 OVC045 M26/M30 A3010 RMK ST3SC5 VIS N-1 SLP231
  • 260050Z 05010G16KT 6SM VCSH SCT013 OVC040 M26/M30 A3010 RMK ST3SC5 SLP231
  • 260000Z 06008KT 5SM -SN SCT015 OVC031 M26/M30 A3010 RMK ST3SC5 SLP230
  • 252300Z 06008KT 3SM -SN OVC024 M26/M30 A3009 RMK SN3SC5 SLP228

Expired Forecast.



MET'MAP, your aeronautical weather chart ! - Copyright ORBIFLY December 2007 - Disclaimer

ORBIFLY MET'MAP TEAM :

Programming & Development : Alexandra Zaïnal
Concept & original design : Baudouin d'Aumeries
Assistance for programming : Marc-Olivier Méhu
Technical & hardware support : Manuel Goepfert

Contact : metmap@orbifly.com




SOURCES & CREDITS :

   NOAA       Earth
Advisory